Time;durP1;ratioP1;P1;durP2;ratioP2;P2;SDS_P1;SDS_P2;PMS_P1;PMS_P2;Temp;Humidity;BMP_temperature;BMP_pressure;BME280_temperature;BME280_humidity;BME280_pressure;Samples;Min_cycle;Max_cycle;Signal;HPM_P1;HPM_P2
2022/04/18 00:01:15;;;;;;;4.47;3.73;;;0.50;99.90;-0.70;101125;;;;570113;245;24055;-76
2022/04/18 00:03:39;;;;;;;4.47;4.07;;;0.40;99.90;-0.70;101121;;;;566968;245;24082;-75
2022/04/18 00:06:08;;;;;;;5.07;3.90;;;0.40;99.90;-0.60;101124;;;;567047;246;24119;-76
2022/04/18 00:08:36;;;;;;;4.85;3.15;;;0.50;99.90;-0.60;101117;;;;563158;245;35304;-76
2022/04/18 00:11:05;;;;;;;4.20;2.83;;;0.50;99.90;-0.60;101128;;;;571634;247;24073;-80
2022/04/18 00:13:33;;;;;;;4.10;3.47;;;0.50;99.90;-0.60;101119;;;;568993;247;24095;-77
2022/04/18 00:16:04;;;;;;;4.43;4.03;;;0.50;99.90;-0.50;101128;;;;572606;247;24092;-79
2022/04/18 00:18:29;;;;;;;4.73;4.20;;;0.60;99.90;-0.50;101131;;;;572826;247;24088;-76
2022/04/18 00:20:57;;;;;;;4.53;4.10;;;0.50;99.90;-0.50;101126;;;;572794;246;24112;-77
2022/04/18 00:23:25;;;;;;;4.63;3.83;;;0.60;99.90;-0.50;101112;;;;572350;246;24087;-75
2022/04/18 00:25:53;;;;;;;4.43;3.77;;;0.60;99.90;-0.50;101116;;;;552875;259;24197;-77
2022/04/18 00:28:20;;;;;;;5.80;5.07;;;0.60;99.90;-0.50;101102;;;;562546;248;24112;-78
2022/04/18 00:30:53;;;;;;;5.40;4.80;;;0.60;99.90;-0.50;101104;;;;564657;250;24147;-78
2022/04/18 00:33:18;;;;;;;7.20;5.10;;;0.60;99.90;-0.50;101103;;;;554932;254;24147;-78
2022/04/18 00:35:45;;;;;;;6.43;4.97;;;0.60;99.90;-0.50;101100;;;;564609;250;24117;-78
2022/04/18 00:38:13;;;;;;;4.97;4.50;;;0.60;99.90;-0.60;101112;;;;565122;250;24186;-76
2022/04/18 00:40:41;;;;;;;6.33;4.97;;;0.50;99.90;-0.60;101106;;;;564636;250;24165;-79
2022/04/18 00:43:09;;;;;;;7.28;5.87;;;0.50;99.90;-0.60;101099;;;;559749;250;35475;-80
2022/04/18 00:45:37;;;;;;;9.97;3.80;;;0.50;99.90;-0.70;101096;;;;564661;250;24137;-79
2022/04/18 00:48:05;;;;;;;7.93;6.27;;;0.50;99.90;-0.70;101103;;;;564980;250;24096;-80
2022/04/18 00:50:33;;;;;;;8.00;7.00;;;0.40;99.90;-0.70;101099;;;;566046;250;24175;-78
2022/04/18 00:53:07;;;;;;;10.90;6.57;;;0.40;99.90;-0.70;101089;;;;566020;250;24173;-82
2022/04/18 00:55:32;;;;;;;11.83;7.43;;;0.40;99.90;-0.70;101095;;;;565718;250;24118;-78
2022/04/18 00:58:03;;;;;;;10.77;7.73;;;0.40;99.90;-0.70;101090;;;;563495;250;24127;-79
2022/04/18 01:00:29;;;;;;;13.67;7.77;;;0.30;99.90;-0.80;101085;;;;561397;250;24125;-79
2022/04/18 01:02:57;;;;;;;9.80;8.17;;;0.30;99.90;-0.70;101082;;;;554324;255;25217;-77
2022/04/18 01:05:25;;;;;;;11.20;8.90;;;0.30;99.90;-0.80;101069;;;;560433;252;24123;-79
2022/04/18 01:07:53;;;;;;;14.00;8.70;;;0.30;99.90;-0.80;101076;;;;561505;252;24140;-80
2022/04/18 01:10:21;;;;;;;10.73;8.73;;;0.30;99.90;-0.90;101071;;;;562312;255;24160;-78
2022/04/18 01:12:49;;;;;;;11.70;8.57;;;0.20;99.90;-0.90;101078;;;;563032;250;24115;-80
2022/04/18 01:15:17;;;;;;;10.77;8.03;;;0.10;99.90;-1.00;101082;;;;564900;250;24183;-82
2022/04/18 01:17:46;;;;;;;9.97;8.00;;;0.10;99.90;-1.00;101077;;;;565318;250;24154;-81
2022/04/18 01:20:14;;;;;;;10.30;7.87;;;0.10;99.90;-1.10;101077;;;;565380;250;24118;-77
2022/04/18 01:22:44;;;;;;;9.97;7.07;;;0.00;99.90;-1.10;101071;;;;564915;250;24202;-80
2022/04/18 01:30:42;;;;;;;9.60;7.20;;;-0.10;99.90;-1.20;101065;;;;564283;250;24093;-81
2022/04/18 01:33:10;;;;;;;7.90;6.53;;;-0.10;99.90;-1.10;101070;;;;564232;250;24116;-78
2022/04/18 01:35:38;;;;;;;7.70;6.90;;;-0.10;99.90;-1.10;101073;;;;554298;253;24118;-78
2022/04/18 01:38:10;;;;;;;9.40;7.70;;;0.00;99.90;-1.10;101075;;;;570822;250;24095;-77
2022/04/18 01:40:36;;;;;;;11.10;8.83;;;0.00;99.90;-1.10;101077;;;;572757;247;24095;-76
2022/04/18 01:43:04;;;;;;;9.23;7.77;;;0.00;99.90;-1.10;101067;;;;554985;255;24154;-83
2022/04/18 01:45:32;;;;;;;8.57;7.47;;;0.00;99.90;-1.00;101068;;;;565227;250;24152;-77
2022/04/18 01:48:00;;;;;;;10.33;6.93;;;0.00;99.90;-1.00;101066;;;;581318;247;24100;-76
2022/04/18 01:50:28;;;;;;;8.50;7.27;;;0.00;99.90;-1.00;101071;;;;553917;255;24149;-75
2022/04/18 01:52:57;;;;;;;8.10;7.20;;;0.10;99.90;-1.00;101068;;;;564093;250;24151;-76
2022/04/18 01:55:25;;;;;;;10.17;7.73;;;0.10;99.90;-1.00;101070;;;;571711;247;24098;-77
2022/04/18 01:57:53;;;;;;;8.60;6.53;;;0.10;99.90;-1.00;101053;;;;553841;255;24126;-78
2022/04/18 02:00:21;;;;;;;9.60;7.27;;;0.10;99.90;-1.00;101069;;;;564458;250;24108;-83
2022/04/18 02:02:49;;;;;;;8.47;6.03;;;0.10;99.90;-1.10;101056;;;;571866;247;24110;-80
2022/04/18 02:05:16;;;;;;;6.87;6.17;;;0.00;99.90;-1.10;101045;;;;553671;255;24191;-76
2022/04/18 02:07:44;;;;;;;7.43;6.57;;;0.00;99.90;-1.10;101045;;;;564138;250;24111;-77
2022/04/18 02:10:13;;;;;;;8.00;6.73;;;0.00;99.90;-1.10;101043;;;;571856;247;24094;-77
2022/04/18 02:12:40;;;;;;;7.93;6.77;;;0.00;99.90;-1.10;101038;;;;572252;247;24087;-78
2022/04/18 02:15:09;;;;;;;8.77;7.83;;;0.00;99.90;-1.10;101041;;;;563779;250;24145;-77
2022/04/18 02:17:40;;;;;;;10.03;7.90;;;-0.10;99.90;-1.10;101043;;;;572253;247;24099;-77
2022/04/18 02:20:05;;;;;;;10.63;8.13;;;0.00;99.90;-1.10;101049;;;;563606;250;24125;-78
2022/04/18 02:22:34;;;;;;;9.13;7.33;;;-0.10;99.90;-1.20;101042;;;;563807;250;24090;-78
2022/04/18 02:25:05;;;;;;;9.73;7.47;;;-0.10;99.90;-1.20;101039;;;;553645;255;24281;-77
2022/04/18 02:27:30;;;;;;;7.40;6.57;;;-0.10;99.90;-1.20;101036;;;;562258;255;24283;-78
2022/04/18 02:29:58;;;;;;;7.90;6.67;;;-0.10;99.90;-1.20;101029;;;;561689;252;24175;-78
2022/04/18 02:35:12;;;;;;;10.43;7.57;;;-0.10;99.90;-1.20;101037;;;;561746;255;24199;-77
2022/04/18 02:37:39;;;;;;;12.33;8.37;;;-0.10;99.90;-1.20;101031;;;;564034;250;24123;-76
2022/04/18 02:40:07;;;;;;;9.43;7.60;;;-0.10;99.90;-1.20;101028;;;;553648;255;24130;-77
2022/04/18 02:42:35;;;;;;;9.73;8.40;;;-0.10;99.90;-1.20;101028;;;;568742;250;24151;-77
2022/04/18 02:45:07;;;;;;;8.67;7.70;;;-0.10;99.90;-1.20;101016;;;;553853;255;24121;-76
2022/04/18 02:47:31;;;;;;;10.93;7.03;;;-0.10;99.90;-1.20;101016;;;;571803;246;24083;-78
2022/04/18 02:49:59;;;;;;;8.35;7.55;;;-0.10;99.90;-1.20;101015;;;;549861;255;35761;-77
2022/04/18 02:52:27;;;;;;;5.17;3.90;;;-0.10;99.90;-1.20;101015;;;;569592;250;24087;-78
2022/04/18 02:54:55;;;;;;;7.03;5.97;;;-0.10;99.90;-1.20;101018;;;;562082;255;25219;-76
2022/04/18 02:57:23;;;;;;;9.47;6.37;;;-0.10;99.90;-1.20;101015;;;;569188;250;24103;-78
2022/04/18 02:59:51;;;;;;;9.77;6.93;;;-0.10;99.90;-1.10;101019;;;;554461;255;24162;-77
2022/04/18 03:02:19;;;;;;;8.73;7.47;;;0.00;99.90;-1.10;101022;;;;579245;248;25270;-76
2022/04/18 03:04:47;;;;;;;9.43;8.27;;;0.00;99.90;-1.10;101026;;;;571675;247;24074;-77
2022/04/18 03:07:14;;;;;;;11.87;8.20;;;0.00;99.90;-1.10;101010;;;;572646;247;24076;-77
2022/04/18 03:09:42;;;;;;;9.33;7.77;;;0.00;99.90;-1.10;101008;;;;553939;255;24165;-77
2022/04/18 03:12:10;;;;;;;8.77;7.23;;;0.00;99.90;-1.10;101016;;;;564412;250;24163;-76
2022/04/18 03:14:38;;;;;;;10.10;8.23;;;0.00;99.90;-1.10;101015;;;;571780;247;24119;-76
2022/04/18 03:17:11;;;;;;;10.13;7.43;;;0.00;99.90;-1.20;101009;;;;554323;255;24134;-77
2022/04/18 03:19:35;;;;;;;10.07;7.47;;;0.00;99.90;-1.20;101008;;;;562662;255;24141;-78
2022/04/18 03:22:06;;;;;;;11.07;7.97;;;-0.10;99.90;-1.20;101005;;;;570429;247;24116;-76
2022/04/18 03:24:31;;;;;;;8.83;7.73;;;-0.10;99.90;-1.20;101003;;;;577007;245;24213;-76
2022/04/18 03:27:00;;;;;;;11.90;7.50;;;-0.10;99.90;-1.10;101006;;;;566623;249;24150;-76
2022/04/18 03:29:31;;;;;;;9.60;7.20;;;-0.10;99.90;-1.10;100997;;;;566676;249;24189;-78
2022/04/18 03:32:00;;;;;;;9.63;7.20;;;0.00;99.90;-1.10;101012;;;;566930;249;24114;-77
2022/04/18 03:34:24;;;;;;;9.13;6.63;;;0.00;99.90;-1.00;101011;;;;566494;249;24114;-77
2022/04/18 03:39:56;;;;;;;9.63;7.13;;;0.10;99.90;-0.90;101010;;;;572789;249;24109;-80
2022/04/18 03:42:33;;;;;;;10.37;8.07;;;0.10;99.90;-0.90;101000;;;;567348;249;24107;-80
2022/04/18 03:45:03;;;;;;;14.57;11.90;;;0.20;99.90;-0.90;100998;;;;563428;250;24187;-78
2022/04/18 03:47:31;;;;;;;13.00;11.27;;;0.20;99.90;-0.80;101007;;;;555712;250;24187;-80
2022/04/18 03:49:58;;;;;;;9.83;8.77;;;0.20;99.90;-0.80;100994;;;;563733;254;24171;-80
2022/04/18 03:52:26;;;;;;;11.15;8.57;;;0.30;99.90;-0.70;101009;;;;557762;252;35567;-82
2022/04/18 03:54:54;;;;;;;7.10;5.87;;;0.40;99.90;-0.60;100997;;;;564560;247;24094;-77
2022/04/18 03:57:22;;;;;;;7.37;4.83;;;0.40;99.90;-0.50;100995;;;;571021;247;24114;-78
2022/04/18 03:59:50;;;;;;;9.03;6.70;;;0.50;99.90;-0.40;101005;;;;555410;254;24180;-77
2022/04/18 04:02:18;;;;;;;8.60;6.80;;;0.60;99.90;-0.30;101002;;;;571854;247;24119;-77
2022/04/18 04:04:46;;;;;;;8.33;6.33;;;0.80;99.90;-0.20;101001;;;;571780;247;24094;-76
2022/04/18 04:07:15;;;;;;;9.97;6.63;;;1.00;99.90;-0.10;101001;;;;571626;247;24080;-78
2022/04/18 04:09:45;;;;;;;6.40;5.20;;;1.00;99.90;0.10;101003;;;;571514;247;25119;-77
2022/04/18 04:12:10;;;;;;;5.47;4.97;;;1.10;99.90;0.20;101004;;;;571230;247;24114;-77
2022/04/18 04:14:38;;;;;;;5.70;4.57;;;1.20;99.90;0.30;101004;;;;572442;247;27318;-78
2022/04/18 04:17:06;;;;;;;4.77;4.17;;;1.30;99.90;0.40;101004;;;;573775;247;24093;-76
2022/04/18 04:19:34;;;;;;;5.07;4.00;;;1.40;99.90;0.60;101000;;;;574884;246;24076;-77
2022/04/18 04:22:02;;;;;;;2.70;2.50;;;1.60;99.90;0.70;101005;;;;556683;254;24137;-78
2022/04/18 04:24:31;;;;;;;2.97;2.53;;;1.80;99.90;0.90;100993;;;;564974;250;24165;-77
2022/04/18 04:26:59;;;;;;;4.83;2.77;;;1.80;99.90;1.00;101003;;;;565021;254;24136;-75
2022/04/18 04:29:27;;;;;;;3.53;2.67;;;2.10;99.90;1.10;101000;;;;565235;250;24127;-77
2022/04/18 04:31:56;;;;;;;2.40;2.20;;;2.30;99.90;1.30;101000;;;;564975;254;24126;-78
2022/04/18 04:34:24;;;;;;;3.20;2.53;;;2.20;99.90;1.40;101002;;;;565112;254;24168;-80
2022/04/18 04:36:52;;;;;;;2.43;2.20;;;2.40;99.90;1.60;101003;;;;556214;254;24151;-78
2022/04/18 04:39:20;;;;;;;3.10;2.80;;;2.50;99.90;1.70;101000;;;;566384;249;24144;-76
2022/04/18 04:41:48;;;;;;;4.40;2.50;;;2.70;99.90;2.30;101011;;;;555938;254;24184;-76
2022/04/18 04:44:15;;;;;;;3.60;2.50;;;3.10;99.90;3.90;101014;;;;566227;249;24105;-77
2022/04/18 04:46:45;;;;;;;4.57;2.77;;;4.50;99.90;5.80;101013;;;;561840;252;24127;-77
2022/04/18 04:49:12;;;;;;;5.00;2.57;;;6.40;99.90;7.60;101021;;;;553497;255;24206;-78
2022/04/18 04:51:39;;;;;;;5.83;2.40;;;8.20;99.90;9.30;101021;;;;555206;255;24144;-79
2022/04/18 04:54:07;;;;;;;2.00;1.87;;;10.00;99.90;10.80;101024;;;;565868;250;24117;-78
2022/04/18 04:56:36;;;;;;;3.17;1.80;;;12.90;99.90;12.20;101023;;;;564318;250;24153;-79
2022/04/18 04:59:04;;;;;;;2.00;1.80;;;12.80;99.90;13.20;101021;;;;563783;247;35220;-81
2022/04/18 05:01:33;;;;;;;1.70;1.50;;;14.00;99.90;14.20;101024;;;;568538;251;24104;-76
2022/04/18 05:04:01;;;;;;;1.97;1.70;;;15.00;99.90;15.10;101014;;;;562278;250;24150;-77
2022/04/18 05:06:29;;;;;;;2.23;2.00;;;16.00;99.90;16.10;101014;;;;563937;250;24133;-76
2022/04/18 05:08:57;;;;;;;2.00;1.90;;;16.90;99.70;16.90;101015;;;;571474;247;24081;-77
2022/04/18 05:11:26;;;;;;;1.33;1.30;;;18.50;89.10;17.60;101012;;;;568317;246;24082;-78
2022/04/18 05:13:54;;;;;;;2.63;1.90;;;19.20;81.50;18.30;101018;;;;570406;251;24122;-77
2022/04/18 05:16:24;;;;;;;1.40;1.23;;;19.90;75.50;19.20;101018;;;;569154;247;24170;-77
2022/04/18 05:18:51;;;;;;;1.20;1.20;;;19.90;75.50;19.80;101017;;;;571532;247;24127;-81
2022/04/18 05:21:22;;;;;;;2.40;1.60;;;20.70;68.70;20.50;101023;;;;570606;247;23114;-85
2022/04/18 05:23:48;;;;;;;1.80;1.70;;;21.30;65.20;21.30;101020;;;;572960;247;24067;-77
2022/04/18 05:26:15;;;;;;;2.43;1.70;;;22.00;61.10;22.10;101026;;;;565364;250;24105;-83
2022/04/18 05:28:42;;;;;;;3.23;1.37;;;22.70;58.10;22.60;101033;;;;565969;250;24214;-83
2022/04/18 05:31:10;;;;;;;2.50;1.50;;;23.40;55.70;22.90;101036;;;;565220;250;24179;-82
2022/04/18 05:33:38;;;;;;;1.27;1.10;;;23.80;53.70;23.20;101042;;;;564961;250;24115;-77
2022/04/18 05:36:07;;;;;;;1.97;1.73;;;24.60;52.10;23.80;101043;;;;564585;250;24120;-77
2022/04/18 05:38:35;;;;;;;3.53;1.73;;;24.50;52.00;24.30;101037;;;;564394;248;23120;-77
2022/04/18 05:41:06;;;;;;;1.40;1.30;;;25.00;50.10;24.80;101045;;;;564358;250;24198;-76
2022/04/18 05:43:31;;;;;;;1.20;1.20;;;25.50;49.10;25.20;101045;;;;563878;250;23148;-76
2022/04/18 05:45:59;;;;;;;1.50;1.40;;;25.90;47.80;25.50;101048;;;;564381;250;23124;-78
2022/04/18 05:48:27;;;;;;;1.53;1.40;;;26.30;46.70;25.80;101053;;;;566338;247;23094;-78
2022/04/18 05:50:54;;;;;;;1.67;1.57;;;26.60;45.80;26.30;101053;;;;568466;252;23116;-77
2022/04/18 05:53:26;;;;;;;1.67;1.57;;;27.10;45.00;26.60;101052;;;;570558;249;24180;-80
2022/04/18 05:55:53;;;;;;;1.73;1.43;;;27.30;44.10;26.60;101064;;;;553582;255;23176;-77
2022/04/18 05:58:21;;;;;;;3.53;1.60;;;27.50;43.60;26.90;101056;;;;552840;255;24149;-79
2022/04/18 06:00:49;;;;;;;1.83;1.70;;;27.70;43.20;27.20;101067;;;;572341;247;23119;-78
2022/04/18 06:03:18;;;;;;;1.83;1.50;;;28.30;43.20;27.70;101077;;;;563944;250;24107;-79
2022/04/18 06:05:46;;;;;;;2.93;1.57;;;28.30;42.30;28.30;101073;;;;553985;255;23211;-78
2022/04/18 06:08:14;;;;;;;1.80;1.70;;;28.80;41.10;28.40;101067;;;;568386;249;23106;-78
2022/04/18 06:10:41;;;;;;;1.98;1.90;;;29.00;40.80;28.90;101070;;;;568284;249;23082;-79
2022/04/18 06:13:10;;;;;;;2.40;1.80;;;29.40;40.50;29.30;101071;;;;570196;247;24111;-80
2022/04/18 06:15:37;;;;;;;2.12;2.00;;;29.90;39.90;29.70;101077;;;;570673;247;23081;-78
2022/04/18 06:18:06;;;;;;;2.00;1.90;;;30.70;38.40;30.10;101078;;;;570956;247;23098;-77
2022/04/18 06:20:35;;;;;;;1.87;1.77;;;31.10;38.10;30.60;101078;;;;570697;247;23104;-78
2022/04/18 06:23:03;;;;;;;3.12;1.95;;;31.50;38.20;30.90;101084;;;;571575;247;23138;-77
2022/04/18 06:25:31;;;;;;;2.25;1.87;;;31.50;37.40;31.20;101077;;;;571820;247;24130;-78
2022/04/18 06:27:59;;;;;;;3.35;2.22;;;31.80;37.20;31.50;101085;;;;566526;247;35311;-79
2022/04/18 06:30:27;;;;;;;1.80;1.70;;;32.10;36.20;31.50;101078;;;;571422;247;23108;-81
2022/04/18 06:32:55;;;;;;;2.40;2.20;;;32.20;36.40;31.90;101091;;;;571484;247;23086;-77
2022/04/18 06:35:23;;;;;;;2.47;2.30;;;32.50;36.40;32.20;101093;;;;571723;247;23112;-78
2022/04/18 06:37:51;;;;;;;2.12;2.00;;;32.70;35.80;32.60;101089;;;;571283;247;23112;-80
2022/04/18 06:40:19;;;;;;;2.35;2.10;;;33.00;35.20;33.00;101094;;;;571292;247;23121;-78
2022/04/18 06:42:50;;;;;;;2.28;2.08;;;33.90;34.20;33.30;101100;;;;570968;247;23179;-78
2022/04/18 06:45:16;;;;;;;2.35;2.15;;;34.30;34.10;33.80;101101;;;;570639;247;23126;-80
2022/04/18 06:47:45;;;;;;;2.78;2.55;;;34.70;32.80;34.00;101101;;;;570810;247;24161;-78
2022/04/18 06:50:13;;;;;;;2.85;2.40;;;34.60;32.70;33.80;101096;;;;570642;247;23113;-77
2022/04/18 06:52:44;;;;;;;2.90;2.70;;;34.60;32.40;33.60;101102;;;;570557;247;24130;-77
2022/04/18 06:55:09;;;;;;;2.80;2.47;;;34.40;32.60;33.20;101106;;;;570389;247;23119;-77
2022/04/18 06:57:36;;;;;;;3.00;2.80;;;34.30;31.60;32.90;101108;;;;570587;247;23116;-78
2022/04/18 07:00:04;;;;;;;2.40;2.25;;;33.90;32.50;33.00;101103;;;;570198;247;23127;-78
2022/04/18 07:02:33;;;;;;;3.53;2.80;;;33.80;33.10;33.10;101111;;;;570090;247;24173;-77
2022/04/18 07:05:01;;;;;;;2.92;2.72;;;33.70;33.00;33.20;101107;;;;569963;247;23119;-78
2022/04/18 07:07:29;;;;;;;2.92;2.30;;;33.80;33.50;33.30;101108;;;;570127;247;23108;-77
2022/04/18 07:09:58;;;;;;;2.40;2.30;;;33.80;33.70;33.50;101109;;;;570063;247;23117;-77
2022/04/18 07:12:25;;;;;;;2.70;2.50;;;33.90;33.60;33.70;101108;;;;570165;247;23237;-76
2022/04/18 07:14:55;;;;;;;2.72;2.53;;;34.10;32.90;33.60;101107;;;;570418;247;23085;-78
2022/04/18 07:17:21;;;;;;;2.75;2.40;;;34.10;32.50;33.80;101108;;;;570330;247;24117;-77
2022/04/18 07:19:49;;;;;;;2.87;2.67;;;34.30;32.80;34.30;101111;;;;570470;247;23089;-76
2022/04/18 07:22:16;;;;;;;4.25;3.83;;;34.70;32.30;34.70;101115;;;;570671;247;23097;-77
2022/04/18 07:24:44;;;;;;;3.12;2.83;;;35.00;31.50;34.60;101115;;;;570585;247;23121;-77
2022/04/18 07:27:13;;;;;;;3.75;2.55;;;35.10;31.80;34.70;101114;;;;570616;247;23104;-77
2022/04/18 07:29:41;;;;;;;3.00;2.80;;;35.10;31.80;34.30;101116;;;;570590;247;23085;-79
2022/04/18 07:32:09;;;;;;;3.30;3.00;;;34.90;31.20;34.00;101125;;;;570647;247;23093;-78
2022/04/18 07:34:37;;;;;;;2.90;2.65;;;34.60;31.50;34.10;101123;;;;571498;247;23108;-77
2022/04/18 07:37:05;;;;;;;3.78;3.30;;;34.60;31.00;33.90;101117;;;;571785;247;24138;-77
2022/04/18 07:39:33;;;;;;;3.78;3.37;;;34.60;30.20;33.80;101114;;;;571450;247;23125;-78
2022/04/18 07:42:01;;;;;;;3.37;3.17;;;34.50;30.50;34.30;101129;;;;571454;247;23096;-79
2022/04/18 07:44:28;;;;;;;3.92;3.17;;;34.80;30.50;34.70;101124;;;;571207;247;23099;-77
2022/04/18 07:46:58;;;;;;;2.90;2.80;;;35.10;30.60;34.90;101118;;;;571187;247;23108;-82
2022/04/18 07:49:24;;;;;;;3.60;3.10;;;35.50;30.50;35.20;101129;;;;571264;247;23121;-79
2022/04/18 07:51:54;;;;;;;3.45;3.20;;;35.80;30.40;35.30;101113;;;;568845;247;23083;-78
2022/04/18 07:54:22;;;;;;;3.95;3.22;;;36.00;30.10;35.30;101120;;;;570774;247;23109;-77
2022/04/18 07:56:48;;;;;;;3.60;3.30;;;36.00;29.90;35.50;101132;;;;570607;247;24187;-78
2022/04/18 07:59:16;;;;;;;3.55;3.35;;;36.00;29.50;35.60;101122;;;;570691;247;24162;-79
2022/04/18 08:01:45;;;;;;;3.67;2.78;;;36.10;29.70;35.40;101125;;;;571115;247;23127;-80
2022/04/18 08:04:13;;;;;;;3.12;2.92;;;36.10;29.60;35.30;101117;;;;570767;247;23101;-81
2022/04/18 08:06:40;;;;;;;2.72;2.53;;;36.10;30.00;35.40;101119;;;;570959;247;23104;-79
2022/04/18 08:09:09;;;;;;;4.53;3.50;;;36.50;30.20;35.90;101123;;;;570869;247;23102;-82
2022/04/18 08:11:37;;;;;;;4.40;3.95;;;36.40;30.10;35.70;101117;;;;570671;247;23105;-83
2022/04/18 08:14:05;;;;;;;3.05;2.85;;;36.40;29.80;35.60;101126;;;;570542;247;23077;-78
2022/04/18 08:16:34;;;;;;;3.78;3.47;;;36.10;30.00;35.50;101120;;;;570902;247;23113;-76
2022/04/18 08:19:02;;;;;;;4.15;3.80;;;36.10;30.00;35.80;101123;;;;570904;247;23096;-81
2022/04/18 08:21:31;;;;;;;4.43;3.85;;;36.30;29.90;35.80;101116;;;;571079;247;24182;-80
2022/04/18 08:23:58;;;;;;;3.78;3.40;;;36.40;30.00;35.80;101113;;;;571214;247;23086;-80
2022/04/18 08:26:28;;;;;;;3.75;3.22;;;36.40;29.90;36.40;101116;;;;571134;247;23134;-77
2022/04/18 08:29:00;;;;;;;4.60;4.10;;;37.20;29.40;36.60;101119;;;;570047;247;23095;-78
2022/04/18 08:31:27;;;;;;;4.07;3.78;;;37.10;29.30;36.50;101107;;;;577703;247;23151;-80
2022/04/18 08:33:54;;;;;;;3.40;3.20;;;37.20;29.20;36.60;101110;;;;570436;247;23116;-77
2022/04/18 08:36:22;;;;;;;3.30;3.08;;;37.60;29.00;36.10;101114;;;;572081;247;23085;-75
2022/04/18 08:38:50;;;;;;;4.03;3.72;;;37.50;29.10;36.00;101102;;;;571880;247;23100;-77
2022/04/18 08:41:18;;;;;;;4.43;3.90;;;37.30;29.00;35.90;101105;;;;571995;247;23085;-76
2022/04/18 08:43:46;;;;;;;4.07;3.78;;;37.20;29.40;35.70;101102;;;;571776;247;23106;-80
2022/04/18 08:46:14;;;;;;;3.90;3.65;;;37.00;29.00;34.70;101103;;;;575814;247;23132;-77
2022/04/18 08:54:16;;;;;;;3.62;3.42;;;36.10;29.20;34.50;101095;;;;573034;247;23038;-76
2022/04/18 08:56:44;;;;;;;3.53;3.22;;;35.60;29.10;34.20;101101;;;;572918;247;23108;-76
2022/04/18 08:59:12;;;;;;;3.62;3.35;;;35.40;29.30;34.40;101096;;;;572668;247;23091;-79
2022/04/18 09:01:50;;;;;;;4.47;4.10;;;35.40;29.10;34.50;101100;;;;572845;247;23123;-83
2022/04/18 09:04:16;;;;;;;6.32;5.72;;;35.40;29.00;34.60;101080;;;;572084;247;23144;-79
2022/04/18 09:06:45;;;;;;;5.28;4.37;;;35.60;28.70;34.90;101091;;;;571666;247;23118;-77
2022/04/18 09:09:15;;;;;;;4.18;3.87;;;35.80;28.60;35.10;101091;;;;571966;247;23085;-74
2022/04/18 09:11:43;;;;;;;4.50;4.10;;;36.30;27.50;35.00;101082;;;;566826;247;35370;-76
2022/04/18 09:14:11;;;;;;;8.68;7.97;;;36.50;27.10;34.00;101089;;;;566732;247;35258;-76
2022/04/18 09:16:39;;;;;;;4.70;4.30;;;36.10;26.50;33.40;101081;;;;571172;247;23111;-77
2022/04/18 09:19:13;;;;;;;4.57;4.28;;;35.50;27.70;33.80;101091;;;;571100;247;23129;-76
2022/04/18 09:21:44;;;;;;;4.70;4.30;;;35.50;28.00;34.10;101087;;;;569364;247;24095;-79
2022/04/18 09:24:32;;;;;;;4.12;3.83;;;35.60;27.80;34.20;101085;;;;570695;247;23093;-77
2022/04/18 09:26:54;;;;;;;4.78;4.37;;;35.60;28.40;34.30;101079;;;;570154;247;23085;-76
2022/04/18 09:29:23;;;;;;;4.78;4.37;;;36.20;27.20;34.80;101067;;;;570611;247;23100;-76
2022/04/18 09:31:51;;;;;;;5.25;4.85;;;36.20;27.20;35.10;101065;;;;570650;247;23090;-76
2022/04/18 09:34:22;;;;;;;4.57;4.20;;;36.60;27.20;34.70;101065;;;;572870;247;23109;-76
2022/04/18 09:36:50;;;;;;;4.65;4.35;;;36.60;26.00;33.90;101064;;;;573379;247;23123;-76
2022/04/18 09:39:24;;;;;;;4.72;4.43;;;36.30;26.60;33.60;101064;;;;569180;247;23158;-76
2022/04/18 09:41:52;;;;;;;5.07;4.57;;;36.00;28.00;34.20;101053;;;;568964;247;23104;-77
2022/04/18 09:44:26;;;;;;;4.53;4.22;;;36.00;26.90;34.00;101050;;;;569638;247;23088;-82
2022/04/18 09:46:57;;;;;;;4.50;4.20;;;36.00;26.90;33.90;101040;;;;570901;247;23101;-76
2022/04/18 09:49:22;;;;;;;4.70;4.37;;;36.10;25.50;33.10;101043;;;;570640;247;23136;-76
2022/04/18 09:51:50;;;;;;;4.50;4.15;;;35.70;25.40;33.00;101045;;;;570531;247;23142;-77
2022/04/18 09:54:21;;;;;;;4.25;3.95;;;35.30;26.80;33.00;101042;;;;570368;247;23147;-76
2022/04/18 09:56:53;;;;;;;4.78;4.47;;;35.30;26.80;32.90;101048;;;;572475;245;24149;-77
2022/04/18 09:59:22;;;;;;;4.75;4.45;;;35.30;27.20;32.90;101037;;;;571721;247;23102;-75
2022/04/18 10:01:48;;;;;;;4.70;4.35;;;35.20;26.80;33.00;101026;;;;579800;247;23141;-77
2022/04/18 10:04:16;;;;;;;4.93;4.57;;;35.20;27.00;32.50;101030;;;;571190;247;23106;-77
2022/04/18 10:06:45;;;;;;;4.78;3.80;;;34.90;27.40;32.00;101032;;;;570950;247;23149;-80
2022/04/18 10:09:11;;;;;;;4.65;4.30;;;34.20;27.30;30.60;101020;;;;573623;247;23227;-80
2022/04/18 10:11:39;;;;;;;4.57;4.28;;;33.20;27.80;28.40;101023;;;;571044;247;23118;-82
2022/04/18 10:14:07;;;;;;;7.30;4.78;;;31.10;28.60;26.10;101016;;;;570885;247;23094;-77
2022/04/18 10:16:35;;;;;;;4.63;4.23;;;28.40;30.00;24.00;101003;;;;571197;247;23098;-78
2022/04/18 10:19:03;;;;;;;4.77;4.37;;;26.00;31.40;22.30;101007;;;;571285;247;23099;-76
2022/04/18 10:21:31;;;;;;;4.00;3.70;;;24.10;34.60;20.90;101007;;;;570148;247;24098;-77
2022/04/18 10:24:29;;;;;;;4.13;3.83;;;22.50;35.80;19.80;101002;;;;570882;247;24125;-75
2022/04/18 10:27:06;;;;;;;5.43;4.33;;;21.10;37.50;18.30;100988;;;;569732;247;24073;-76
2022/04/18 10:29:39;;;;;;;4.93;4.27;;;19.70;38.00;17.30;100992;;;;570038;247;24120;-77
2022/04/18 10:32:07;;;;;;;3.97;3.40;;;18.50;40.80;16.10;100980;;;;570419;247;24098;-75
2022/04/18 10:34:39;;;;;;;8.30;4.07;;;17.50;42.00;15.20;100987;;;;570776;247;24119;-81
2022/04/18 10:37:08;;;;;;;3.63;3.17;;;15.50;44.40;14.50;100986;;;;571276;247;24110;-80
2022/04/18 10:39:34;;;;;;;4.27;3.77;;;15.40;43.80;13.80;100982;;;;571044;247;24117;-83
2022/04/18 10:42:19;;;;;;;6.10;3.60;;;14.10;47.00;13.30;100970;;;;571228;247;24170;-80
2022/04/18 10:44:46;;;;;;;3.93;3.23;;;14.00;47.00;12.90;100980;;;;571584;247;24140;-80
2022/04/18 10:47:15;;;;;;;4.53;3.57;;;13.60;48.70;12.50;100978;;;;571060;247;24079;-82
2022/04/18 10:49:42;;;;;;;5.53;3.63;;;13.10;48.30;12.00;100967;;;;571332;247;24153;-79
2022/04/18 10:52:11;;;;;;;3.20;2.90;;;12.70;49.10;11.60;100952;;;;571213;247;24077;-77
2022/04/18 10:54:39;;;;;;;3.67;3.33;;;11.90;49.20;11.10;100962;;;;570728;247;24087;-76
2022/04/18 10:57:11;;;;;;;4.10;3.70;;;11.90;49.30;10.80;100952;;;;570683;247;24146;-74
2022/04/18 10:59:35;;;;;;;4.43;4.00;;;11.60;51.10;10.60;100944;;;;570220;247;24099;-76
2022/04/18 11:02:04;;;;;;;5.03;4.53;;;11.30;53.70;10.40;100942;;;;570533;247;24136;-75
2022/04/18 11:04:33;;;;;;;6.80;5.20;;;11.10;54.60;10.30;100936;;;;570590;247;24097;-75
2022/04/18 11:07:04;;;;;;;7.00;5.50;;;10.80;57.30;10.20;100935;;;;569910;247;24107;-75
2022/04/18 11:09:32;;;;;;;5.80;4.97;;;10.80;57.30;10.00;100938;;;;571491;247;24117;-76
2022/04/18 11:12:04;;;;;;;5.43;4.93;;;10.70;58.50;10.00;100927;;;;570987;247;24098;-75
2022/04/18 11:14:30;;;;;;;5.53;5.03;;;10.60;58.50;9.90;100928;;;;571211;247;24094;-75
2022/04/18 11:17:00;;;;;;;5.53;4.57;;;10.50;58.70;9.70;100925;;;;570940;247;24166;-75
2022/04/18 11:19:31;;;;;;;5.13;4.73;;;10.40;57.80;9.60;100912;;;;571012;247;24139;-75
2022/04/18 11:22:05;;;;;;;6.47;5.70;;;10.20;56.90;9.50;100911;;;;571058;247;24254;-76
2022/04/18 11:24:59;;;;;;;7.33;5.60;;;10.20;56.90;9.30;100911;;;;569722;247;24092;-76
2022/04/18 11:27:32;;;;;;;7.63;5.67;;;9.90;59.70;9.10;100911;;;;570641;247;24111;-73
2022/04/18 11:30:15;;;;;;;6.10;5.50;;;9.90;59.00;9.10;100909;;;;570686;247;24107;-77
2022/04/18 11:32:45;;;;;;;7.53;5.73;;;9.80;59.50;9.10;100904;;;;570640;247;24114;-75
2022/04/18 11:35:11;;;;;;;7.30;5.23;;;9.80;60.00;9.00;100910;;;;570527;247;24128;-75